createdAt,value
2017-11-29T00:01:51.951Z,99776
2017-11-29T00:04:21.752Z,99776
2017-11-29T00:06:51.617Z,99772
2017-11-29T00:09:22.235Z,99774
2017-11-29T00:11:51.342Z,99777
2017-11-29T00:14:21.200Z,99776
2017-11-29T00:16:50.374Z,99775
2017-11-29T00:19:20.213Z,99776
2017-11-29T00:21:49.282Z,99780
2017-11-29T00:24:19.446Z,99784
2017-11-29T00:26:48.543Z,99784
2017-11-29T00:29:17.648Z,99782
2017-11-29T00:31:49.490Z,99787
2017-11-29T00:34:18.608Z,99784
2017-11-29T00:36:47.747Z,99784
2017-11-29T00:39:17.759Z,99785
2017-11-29T00:41:46.859Z,99787
2017-11-29T00:44:15.968Z,99784
2017-11-29T00:46:45.785Z,99786
2017-11-29T00:49:14.871Z,99786
2017-11-29T00:51:43.995Z,99791
2017-11-29T00:54:14.121Z,99794
2017-11-29T00:56:43.400Z,99796
2017-11-29T00:59:12.508Z,99798
2017-11-29T01:01:42.798Z,99804
2017-11-29T01:04:11.917Z,99806
2017-11-29T01:06:41.012Z,99807
2017-11-29T01:09:11.079Z,99810
2017-11-29T01:11:40.913Z,99809
2017-11-29T01:14:10.941Z,99807
2017-11-29T01:16:41.385Z,99807
2017-11-29T01:19:10.488Z,99810
2017-11-29T01:21:40.330Z,99817
2017-11-29T01:24:09.516Z,99816
2017-11-29T01:26:38.747Z,99820
2017-11-29T01:29:07.827Z,99820
2017-11-29T01:31:38.768Z,99821
2017-11-29T01:34:07.862Z,99821
2017-11-29T01:36:38.612Z,99829
2017-11-29T01:39:08.223Z,99822
2017-11-29T01:41:37.485Z,99820
2017-11-29T01:44:06.597Z,99824
2017-11-29T01:46:35.730Z,99827
2017-11-29T01:49:04.808Z,99831
2017-11-29T01:51:34.661Z,99829
2017-11-29T01:54:03.804Z,99829
2017-11-29T01:56:32.873Z,99825
2017-11-29T01:59:01.968Z,99827
2017-11-29T02:01:32.135Z,99827
2017-11-29T02:04:01.248Z,99835
2017-11-29T02:06:30.450Z,99837
2017-11-29T02:09:00.026Z,99839
2017-11-29T02:11:29.864Z,99841
2017-11-29T02:13:59.992Z,99840
2017-11-29T02:16:30.464Z,99840
2017-11-29T02:18:59.544Z,99839
2017-11-29T02:21:28.675Z,99840
2017-11-29T02:23:57.868Z,99843
2017-11-29T02:26:27.072Z,99841
2017-11-29T02:28:57.031Z,99838
2017-11-29T02:31:26.208Z,99840
2017-11-29T02:33:56.085Z,99837
2017-11-29T02:36:25.276Z,99836
2017-11-29T02:38:54.447Z,99831
2017-11-29T02:41:42.213Z,99839
2017-11-29T02:44:11.600Z,99840
2017-11-29T02:46:40.763Z,99836
2017-11-29T02:49:09.960Z,99841
2017-11-29T02:51:40.069Z,99839
2017-11-29T02:54:09.995Z,99836
2017-11-29T02:56:39.337Z,99835
2017-11-29T02:59:09.695Z,99833
2017-11-29T03:01:38.853Z,99837
2017-11-29T03:04:08.720Z,99843
2017-11-29T03:06:38.308Z,99849
2017-11-29T03:09:08.211Z,99853
2017-11-29T03:11:37.340Z,99852
2017-11-29T03:14:08.000Z,99852
2017-11-29T03:16:37.165Z,99845
2017-11-29T03:19:06.309Z,99845
2017-11-29T03:21:35.429Z,99853
2017-11-29T03:24:04.524Z,99845
2017-11-29T03:26:34.373Z,99847
2017-11-29T03:29:04.492Z,99849
2017-11-29T03:31:33.584Z,99853
2017-11-29T03:34:03.445Z,99854
2017-11-29T03:36:32.576Z,99853
2017-11-29T03:39:02.579Z,99860
2017-11-29T03:41:31.676Z,99864
2017-11-29T03:44:00.924Z,99862
2017-11-29T03:46:30.006Z,99858
2017-11-29T03:48:59.085Z,99863
2017-11-29T03:51:29.261Z,99863
2017-11-29T03:53:58.350Z,99862
2017-11-29T03:56:27.405Z,99865
2017-11-29T03:58:56.753Z,99862
2017-11-29T04:01:26.592Z,99863
2017-11-29T04:03:56.463Z,99867
2017-11-29T04:06:25.623Z,99876
2017-11-29T04:08:54.709Z,99872
2017-11-29T04:11:23.861Z,99880
2017-11-29T04:13:54.418Z,99879
2017-11-29T04:16:23.527Z,99880
2017-11-29T04:18:52.662Z,99881
2017-11-29T04:21:21.776Z,99877
2017-11-29T04:23:50.933Z,99880
2017-11-29T04:26:20.028Z,99881
2017-11-29T04:28:50.775Z,99883
2017-11-29T04:31:19.860Z,99886
2017-11-29T04:33:49.104Z,99885
2017-11-29T04:36:18.344Z,99885
2017-11-29T04:38:47.426Z,99882
2017-11-29T04:41:16.509Z,99884
2017-11-29T04:43:46.712Z,99889
2017-11-29T04:46:15.829Z,99886
2017-11-29T04:48:44.932Z,99890
2017-11-29T04:51:14.943Z,99888
2017-11-29T04:53:44.112Z,99895
2017-11-29T04:56:14.060Z,99897
2017-11-29T04:58:43.328Z,99899
2017-11-29T05:01:12.482Z,99897
2017-11-29T05:03:41.709Z,99905
2017-11-29T05:06:11.037Z,99900
2017-11-29T05:08:40.361Z,99905
2017-11-29T05:11:09.580Z,99909
2017-11-29T05:13:38.810Z,99912
2017-11-29T05:16:08.856Z,99908
2017-11-29T05:18:38.057Z,99910
2017-11-29T05:21:08.142Z,99913
2017-11-29T05:23:37.311Z,99914
2017-11-29T05:26:06.451Z,99916
2017-11-29T05:28:35.578Z,99915
2017-11-29T05:31:04.672Z,99919
2017-11-29T05:33:33.845Z,99918
2017-11-29T05:36:03.946Z,99916
2017-11-29T05:38:33.058Z,99914
2017-11-29T05:41:02.222Z,99921
2017-11-29T05:43:32.564Z,99921
2017-11-29T05:46:01.670Z,99919
2017-11-29T05:48:30.784Z,99923
2017-11-29T05:51:01.327Z,99924
2017-11-29T05:53:30.438Z,99924
2017-11-29T05:55:59.526Z,99925
2017-11-29T05:58:29.424Z,99931
2017-11-29T06:00:59.291Z,99926
2017-11-29T06:03:28.374Z,99927
2017-11-29T06:05:57.537Z,99933
2017-11-29T06:08:27.082Z,99937
2017-11-29T06:10:56.161Z,99941
2017-11-29T06:13:25.416Z,99947
2017-11-29T06:15:55.291Z,99945
2017-11-29T06:18:24.398Z,99946
2017-11-29T06:20:53.713Z,99949
2017-11-29T06:23:22.808Z,99949
2017-11-29T06:25:51.979Z,99953
2017-11-29T06:28:21.991Z,99956
2017-11-29T06:30:51.108Z,99953
2017-11-29T06:33:21.051Z,99953
2017-11-29T06:35:50.445Z,99951
2017-11-29T06:38:20.335Z,99960
2017-11-29T06:40:49.429Z,99958
2017-11-29T06:43:18.564Z,99963
2017-11-29T06:45:47.654Z,99968
2017-11-29T06:48:16.771Z,99975
2017-11-29T06:50:51.029Z,99972
2017-11-29T06:53:20.112Z,99974
2017-11-29T06:55:50.145Z,99975
2017-11-29T06:58:19.552Z,99975
2017-11-29T07:00:48.924Z,99982
2017-11-29T07:03:18.023Z,99981
2017-11-29T07:05:48.934Z,99986
2017-11-29T07:08:18.036Z,99987
2017-11-29T07:10:47.175Z,99990
2017-11-29T07:13:16.319Z,99995
2017-11-29T07:15:45.420Z,100002
2017-11-29T07:18:14.575Z,100005
2017-11-29T07:20:43.742Z,100001
2017-11-29T07:23:12.999Z,100000
2017-11-29T07:25:42.188Z,100003
2017-11-29T07:28:12.246Z,100010
2017-11-29T07:30:41.388Z,100008
2017-11-29T07:33:11.267Z,100012
2017-11-29T07:35:40.607Z,100014
2017-11-29T07:38:09.855Z,100017
2017-11-29T07:40:39.922Z,100014
2017-11-29T07:43:09.737Z,100021
2017-11-29T07:45:38.870Z,100023
2017-11-29T07:48:08.275Z,100025
2017-11-29T07:50:37.457Z,100027
2017-11-29T07:53:06.540Z,100027
2017-11-29T07:55:36.399Z,100027
2017-11-29T07:58:05.898Z,100029
2017-11-29T08:00:34.975Z,100033
2017-11-29T08:03:04.070Z,100037
2017-11-29T08:05:34.194Z,100037
2017-11-29T08:08:03.282Z,100043
2017-11-29T08:10:32.394Z,100043
2017-11-29T08:13:02.498Z,100042
2017-11-29T08:15:31.586Z,100046
2017-11-29T08:18:01.528Z,100047
2017-11-29T08:20:31.869Z,100046
2017-11-29T08:23:00.966Z,100037
2017-11-29T08:25:31.428Z,100036
2017-11-29T08:28:00.602Z,100041
2017-11-29T08:30:29.710Z,100044
2017-11-29T08:32:58.839Z,100047
2017-11-29T08:35:28.925Z,100046
2017-11-29T08:37:58.059Z,100049
2017-11-29T08:40:27.181Z,100050
2017-11-29T08:42:57.077Z,100048
2017-11-29T08:45:26.260Z,100049
2017-11-29T08:47:55.366Z,100052
2017-11-29T08:50:25.711Z,100057
2017-11-29T08:52:54.795Z,100063
2017-11-29T08:55:23.894Z,100061
2017-11-29T08:57:53.808Z,100059
2017-11-29T09:00:23.691Z,100060
2017-11-29T09:02:52.809Z,100059
2017-11-29T09:05:21.985Z,100060
2017-11-29T09:07:51.114Z,100062
2017-11-29T09:10:20.247Z,100065
2017-11-29T09:12:49.460Z,100070
2017-11-29T09:15:18.641Z,100066
2017-11-29T09:17:47.764Z,100067
2017-11-29T09:20:16.922Z,100068
2017-11-29T09:22:46.793Z,100065
2017-11-29T09:25:15.899Z,100063
2017-11-29T09:27:45.953Z,100065
2017-11-29T09:30:15.115Z,100069
2017-11-29T09:32:44.253Z,100067
2017-11-29T09:35:13.465Z,100071
2017-11-29T09:37:42.668Z,100066
2017-11-29T09:40:11.880Z,100074
2017-11-29T09:42:41.690Z,100080
2017-11-29T09:45:10.944Z,100072
2017-11-29T09:47:41.061Z,100077
2017-11-29T09:50:10.362Z,100079
2017-11-29T09:52:39.675Z,100083
2017-11-29T09:55:09.782Z,100086
2017-11-29T09:57:38.999Z,100090
2017-11-29T10:00:08.428Z,100094
2017-11-29T10:02:37.601Z,100095
2017-11-29T10:05:07.729Z,100095
2017-11-29T10:07:37.630Z,100095
2017-11-29T10:10:07.645Z,100090
2017-11-29T10:12:37.783Z,100088
2017-11-29T10:15:06.909Z,100088
2017-11-29T10:17:36.056Z,100087
2017-11-29T10:20:06.225Z,100086
2017-11-29T10:22:35.369Z,100087
2017-11-29T10:25:04.655Z,100085
2017-11-29T10:27:33.945Z,100086
2017-11-29T10:30:03.138Z,100080
2017-11-29T10:32:32.342Z,100085
2017-11-29T10:35:03.042Z,100087
2017-11-29T10:37:32.244Z,100087
2017-11-29T10:40:01.434Z,100084
2017-11-29T10:42:31.484Z,100086
2017-11-29T10:45:01.503Z,100078
2017-11-29T10:47:30.810Z,100076
2017-11-29T10:50:00.059Z,100083
2017-11-29T10:52:29.338Z,100080
2017-11-29T10:54:58.523Z,100082
2017-11-29T10:57:29.608Z,100082
2017-11-29T10:59:58.716Z,100085
2017-11-29T11:02:27.905Z,100079
2017-11-29T11:04:57.686Z,100080
2017-11-29T11:07:27.089Z,100082
2017-11-29T11:09:56.296Z,100074
2017-11-29T11:12:26.402Z,100077
2017-11-29T11:14:55.561Z,100080
2017-11-29T11:17:24.718Z,100079
2017-11-29T11:19:53.975Z,100081
2017-11-29T11:22:23.933Z,100083
2017-11-29T11:24:53.886Z,100089
2017-11-29T11:27:23.326Z,100083
2017-11-29T11:29:52.512Z,100088
2017-11-29T11:32:21.674Z,100088
2017-11-29T11:34:51.799Z,100087
2017-11-29T11:37:20.929Z,100091
2017-11-29T11:39:50.138Z,100093
2017-11-29T11:42:19.312Z,100093
2017-11-29T11:44:48.464Z,100096
2017-11-29T11:47:18.602Z,100100
2017-11-29T11:49:49.917Z,100096
2017-11-29T11:52:19.207Z,100094
2017-11-29T11:54:48.384Z,100092
2017-11-29T11:57:18.398Z,100090
2017-11-29T11:59:47.573Z,100086
2017-11-29T12:02:16.783Z,100094
2017-11-29T12:04:46.909Z,100089
2017-11-29T12:07:16.024Z,100087
2017-11-29T12:09:45.153Z,100087
2017-11-29T12:12:15.160Z,100090
2017-11-29T12:14:44.353Z,100085
2017-11-29T12:17:13.726Z,100080
2017-11-29T12:19:43.055Z,100078
2017-11-29T12:22:12.356Z,100076
2017-11-29T12:24:41.760Z,100075
2017-11-29T12:27:12.068Z,100075
2017-11-29T12:29:41.449Z,100070
2017-11-29T12:32:11.396Z,100074
2017-11-29T12:34:40.675Z,100070
2017-11-29T12:37:09.961Z,100067
2017-11-29T12:39:39.187Z,100072
2017-11-29T12:42:10.421Z,100069
2017-11-29T12:44:39.692Z,100070
2017-11-29T12:47:08.952Z,100067
2017-11-29T12:52:44.296Z,100066
2017-11-29T12:55:14.420Z,100068
2017-11-29T12:57:43.637Z,100068
2017-11-29T13:00:12.811Z,100075
2017-11-29T13:02:43.411Z,100072
2017-11-29T13:05:12.553Z,100075
2017-11-29T13:07:41.729Z,100075
2017-11-29T13:10:11.672Z,100072
2017-11-29T13:12:40.946Z,100073
2017-11-29T13:15:10.947Z,100075
2017-11-29T13:17:40.156Z,100078
2017-11-29T13:20:09.357Z,100079
2017-11-29T13:22:38.656Z,100079
2017-11-29T13:25:07.903Z,100082
2017-11-29T13:27:37.074Z,100083
2017-11-29T13:30:07.187Z,100084
2017-11-29T13:32:37.506Z,100090
2017-11-29T13:35:06.680Z,100085
2017-11-29T13:37:35.840Z,100087
2017-11-29T13:40:05.002Z,100088
2017-11-29T13:42:34.100Z,100084
2017-11-29T13:45:03.233Z,100087
2017-11-29T13:47:33.751Z,100091
2017-11-29T13:50:02.878Z,100094
2017-11-29T13:52:32.004Z,100090
2017-11-29T13:55:01.203Z,100091
2017-11-29T13:57:31.122Z,100096
2017-11-29T14:00:00.230Z,100093
2017-11-29T14:02:29.873Z,100095
2017-11-29T14:04:58.988Z,100093
2017-11-29T14:07:28.932Z,100094
2017-11-29T14:09:58.699Z,100095
2017-11-29T14:12:27.788Z,100091
2017-11-29T14:14:57.230Z,100094
2017-11-29T14:17:27.135Z,100099
2017-11-29T14:19:56.230Z,100097
2017-11-29T14:22:25.338Z,100093
2017-11-29T14:24:56.065Z,100097
2017-11-29T14:27:25.174Z,100098
2017-11-29T14:29:54.260Z,100100
2017-11-29T14:32:23.411Z,100103
2017-11-29T14:34:52.513Z,100106
2017-11-29T14:37:21.607Z,100106
2017-11-29T14:39:51.595Z,100103
2017-11-29T14:42:20.734Z,100106
2017-11-29T14:44:50.612Z,100103
2017-11-29T14:47:20.873Z,100107
2017-11-29T14:49:49.969Z,100107
2017-11-29T14:52:19.252Z,100109
2017-11-29T14:54:48.619Z,100112
2017-11-29T14:57:17.823Z,100116
2017-11-29T14:59:46.953Z,100115
2017-11-29T15:02:16.588Z,100114
2017-11-29T15:04:45.761Z,100118
2017-11-29T15:07:14.919Z,100122
2017-11-29T15:09:45.140Z,100123
2017-11-29T15:12:15.027Z,100128
2017-11-29T15:14:44.183Z,100127
2017-11-29T15:17:13.934Z,100132
2017-11-29T15:19:43.077Z,100132
2017-11-29T15:22:12.347Z,100134
2017-11-29T15:24:42.423Z,100132
2017-11-29T15:27:13.072Z,100136
2017-11-29T15:29:43.301Z,100135
2017-11-29T15:32:12.531Z,100138
2017-11-29T15:34:42.488Z,100138
2017-11-29T15:37:12.261Z,100140
2017-11-29T15:39:41.447Z,100142
2017-11-29T15:42:10.600Z,100138
2017-11-29T15:44:40.147Z,100135
2017-11-29T15:47:09.332Z,100139
2017-11-29T15:49:39.341Z,100135
2017-11-29T15:52:08.765Z,100136
2017-11-29T15:54:37.882Z,100138
2017-11-29T15:57:07.877Z,100134
2017-11-29T15:59:37.821Z,100137
2017-11-29T16:02:06.991Z,100142
2017-11-29T16:04:36.133Z,100141
2017-11-29T16:07:05.888Z,100145
2017-11-29T16:09:35.094Z,100141
2017-11-29T16:12:05.781Z,100143
2017-11-29T16:14:34.923Z,100146
2017-11-29T16:17:04.067Z,100148
2017-11-29T16:19:33.982Z,100147
2017-11-29T16:22:03.591Z,100147
2017-11-29T16:24:32.712Z,100148
2017-11-29T16:27:03.584Z,100151
2017-11-29T16:29:33.213Z,100146
2017-11-29T16:32:02.430Z,100151
2017-11-29T16:34:31.578Z,100155
2017-11-29T16:37:01.554Z,100149
2017-11-29T16:39:32.087Z,100151
2017-11-29T16:42:01.221Z,100156
2017-11-29T16:44:30.884Z,100158
2017-11-29T16:47:00.028Z,100156
2017-11-29T16:49:29.152Z,100157
2017-11-29T16:51:58.461Z,100152
2017-11-29T16:54:28.311Z,100154
2017-11-29T16:56:57.465Z,100156
2017-11-29T16:59:26.635Z,100150
2017-11-29T17:01:55.728Z,100151
2017-11-29T17:04:24.872Z,100151
2017-11-29T17:06:54.229Z,100151
2017-11-29T17:09:27.229Z,100147
2017-11-29T17:11:57.132Z,100147
2017-11-29T17:14:26.214Z,100143
2017-11-29T17:16:55.391Z,100145
2017-11-29T17:19:24.844Z,100143
2017-11-29T17:21:54.012Z,100147
2017-11-29T17:24:23.152Z,100143
2017-11-29T17:26:52.419Z,100144
2017-11-29T17:29:22.319Z,100141
2017-11-29T17:31:51.585Z,100146
2017-11-29T17:34:21.174Z,100144
2017-11-29T17:36:50.891Z,100144
2017-11-29T17:39:20.065Z,100145
2017-11-29T17:41:49.639Z,100144
2017-11-29T17:44:19.522Z,100142
2017-11-29T17:46:48.704Z,100147
2017-11-29T17:49:21.176Z,100143
2017-11-29T17:51:50.595Z,100137
2017-11-29T17:54:19.789Z,100142
2017-11-29T17:56:49.448Z,100144
2017-11-29T17:59:18.735Z,100146
2017-11-29T18:01:48.143Z,100148
2017-11-29T18:04:17.983Z,100144
2017-11-29T18:06:47.657Z,100146
2017-11-29T18:09:17.106Z,100148
2017-11-29T18:11:47.318Z,100146
2017-11-29T18:14:17.411Z,100153
2017-11-29T18:16:47.644Z,100152
2017-11-29T18:19:17.867Z,100158
2017-11-29T18:21:47.158Z,100152
2017-11-29T18:24:16.582Z,100157
2017-11-29T18:26:47.150Z,100163
2017-11-29T18:29:16.446Z,100162
2017-11-29T18:31:46.568Z,100157
2017-11-29T18:34:15.933Z,100152
2017-11-29T18:36:45.998Z,100153
2017-11-29T18:39:15.696Z,100156
2017-11-29T18:41:45.067Z,100151
2017-11-29T18:44:14.378Z,100152
2017-11-29T18:46:44.391Z,100155
2017-11-29T18:49:13.881Z,100154
2017-11-29T18:51:43.228Z,100153
2017-11-29T18:54:12.603Z,100158
2017-11-29T18:56:42.619Z,100154
2017-11-29T18:59:11.922Z,100154
2017-11-29T19:01:41.959Z,100152
2017-11-29T19:04:11.542Z,100154
2017-11-29T19:06:41.456Z,100149
2017-11-29T19:09:13.517Z,100152
2017-11-29T19:11:42.722Z,100156
2017-11-29T19:14:12.910Z,100155
2017-11-29T19:16:44.829Z,100154
2017-11-29T19:19:15.738Z,100149
2017-11-29T19:21:45.071Z,100156
2017-11-29T19:24:15.253Z,100155
2017-11-29T19:26:45.340Z,100160
2017-11-29T19:29:14.587Z,100166
2017-11-29T19:31:44.990Z,100162
2017-11-29T19:34:14.200Z,100169
2017-11-29T19:36:43.603Z,100170
2017-11-29T19:39:13.108Z,100167
2017-11-29T19:41:42.880Z,100169
2017-11-29T19:44:14.065Z,100166
2017-11-29T19:46:46.551Z,100169
2017-11-29T19:49:17.173Z,100162
2017-11-29T19:51:46.617Z,100165
2017-11-29T19:54:16.195Z,100162
2017-11-29T19:56:45.820Z,100161
2017-11-29T19:59:15.992Z,100160
2017-11-29T20:01:45.322Z,100156
2017-11-29T20:04:15.850Z,100156
2017-11-29T20:06:45.178Z,100158
2017-11-29T20:09:15.581Z,100161
2017-11-29T20:11:44.976Z,100164
2017-11-29T20:14:14.374Z,100166
2017-11-29T20:16:45.423Z,100167
2017-11-29T20:19:15.199Z,100167
2017-11-29T20:21:45.373Z,100161
2017-11-29T20:24:14.846Z,100163
2017-11-29T20:26:44.231Z,100163
2017-11-29T20:29:14.788Z,100164
2017-11-29T20:31:44.090Z,100162
2017-11-29T20:34:13.539Z,100161
2017-11-29T20:36:42.678Z,100160
2017-11-29T20:39:11.972Z,100159
2017-11-29T20:41:41.185Z,100154
2017-11-29T20:44:10.392Z,100159
2017-11-29T20:46:39.914Z,100159
2017-11-29T20:49:09.179Z,100162
2017-11-29T20:51:38.580Z,100164
2017-11-29T20:54:08.734Z,100160
2017-11-29T20:56:39.038Z,100160
2017-11-29T20:59:08.229Z,100157
2017-11-29T21:01:38.073Z,100160
2017-11-29T21:04:07.267Z,100158
2017-11-29T21:06:36.409Z,100158
2017-11-29T21:09:06.335Z,100155
2017-11-29T21:11:35.527Z,100156
2017-11-29T21:14:04.645Z,100160
2017-11-29T21:16:33.849Z,100159
2017-11-29T21:19:03.781Z,100158
2017-11-29T21:21:32.918Z,100161
2017-11-29T21:24:03.772Z,100158
2017-11-29T21:26:33.074Z,100159
2017-11-29T21:29:02.262Z,100156
2017-11-29T21:31:31.817Z,100159
2017-11-29T21:34:00.931Z,100155
2017-11-29T21:36:30.037Z,100156
2017-11-29T21:38:59.269Z,100159
2017-11-29T21:41:28.444Z,100154
2017-11-29T21:43:57.585Z,100150
2017-11-29T21:46:28.304Z,100151
2017-11-29T21:48:57.384Z,100152
2017-11-29T21:51:26.489Z,100152
2017-11-29T21:53:56.992Z,100151
2017-11-29T21:56:26.103Z,100147
2017-11-29T21:58:55.255Z,100144
2017-11-29T22:01:25.350Z,100148
2017-11-29T22:03:54.507Z,100145
2017-11-29T22:06:23.616Z,100154
2017-11-29T22:08:53.135Z,100145
2017-11-29T22:11:22.650Z,100154
2017-11-29T22:13:52.061Z,100155
2017-11-29T22:16:21.533Z,100153
2017-11-29T22:18:51.097Z,100148
2017-11-29T22:21:22.025Z,100141
2017-11-29T22:23:52.187Z,100142
2017-11-29T22:26:21.742Z,100144
2017-11-29T22:28:50.994Z,100143
2017-11-29T22:31:21.228Z,100144
2017-11-29T22:33:50.983Z,100145
2017-11-29T22:36:20.450Z,100144
2017-11-29T22:38:51.323Z,100138
2017-11-29T22:41:21.803Z,100143
2017-11-29T22:43:53.006Z,100142
2017-11-29T22:46:22.282Z,100146
2017-11-29T22:48:51.673Z,100148
2017-11-29T22:51:22.524Z,100151
2017-11-29T22:53:51.819Z,100151
2017-11-29T22:56:21.939Z,100146
2017-11-29T22:58:52.925Z,100149
2017-11-29T23:01:22.184Z,100140
2017-11-29T23:03:51.443Z,100141
2017-11-29T23:06:21.079Z,100141
2017-11-29T23:08:51.054Z,100140
2017-11-29T23:11:20.466Z,100140
2017-11-29T23:13:50.143Z,100140
2017-11-29T23:16:19.351Z,100141
2017-11-29T23:18:48.499Z,100140
2017-11-29T23:21:19.039Z,100134
2017-11-29T23:23:48.372Z,100138
2017-11-29T23:26:17.628Z,100139
2017-11-29T23:28:47.313Z,100133
2017-11-29T23:31:16.583Z,100133
2017-11-29T23:33:45.942Z,100125
2017-11-29T23:36:15.151Z,100127
2017-11-29T23:38:44.503Z,100124
2017-11-29T23:41:13.723Z,100124
2017-11-29T23:43:43.971Z,100120
2017-11-29T23:46:13.901Z,100122
2017-11-29T23:48:43.139Z,100124
2017-11-29T23:51:13.335Z,100122
2017-11-29T23:53:43.318Z,100120
2017-11-29T23:56:12.467Z,100118
2017-11-29T23:58:42.971Z,100113
